Time;durP1;ratioP1;P1;durP2;ratioP2;P2;SDS_P1;SDS_P2;PMS_P1;PMS_P2;Temp;Humidity;BMP_temperature;BMP_pressure;BME280_temperature;BME280_humidity;BME280_pressure;Samples;Min_cycle;Max_cycle;Signal;HPM_P1;HPM_P2
2022/03/27 00:00:34;;;;;;;36.72;27.65;;;;;;;10.60;39.46;100480.38;6337424;22;20344;-89
2022/03/27 00:03:00;;;;;;;37.92;27.80;;;;;;;9.87;39.17;100368.94;6337305;22;20015;-90
2022/03/27 00:05:26;;;;;;;40.63;30.15;;;;;;;10.49;39.62;100483.28;6309947;22;19994;-90
2022/03/27 00:07:52;;;;;;;40.88;30.40;;;;;;;9.84;39.57;100358.72;6337431;22;20013;-89
2022/03/27 00:10:17;;;;;;;43.78;31.80;;;;;;;10.54;39.11;100490.72;6337333;22;20438;-89
2022/03/27 00:12:43;;;;;;;48.60;35.97;;;;;;;10.18;39.73;100438.78;6337390;22;20122;-90
2022/03/27 00:15:09;;;;;;;47.15;34.83;;;;;;;9.99;39.47;100444.22;6309770;22;20002;-89
2022/03/27 00:17:35;;;;;;;46.83;34.08;;;;;;;10.16;39.90;100446.00;6337452;22;20020;-89
2022/03/27 00:20:08;;;;;;;37.83;27.27;;;;;;;9.34;39.77;100298.63;6337476;22;20528;-90
2022/03/27 00:22:34;;;;;;;38.75;26.83;;;;;;;10.37;40.08;100473.91;6337393;22;19998;-89
2022/03/27 00:41:49;;;;;;;25.75;19.08;;;;;;;9.77;39.81;100423.59;6337835;22;20010;-90
2022/03/27 00:44:15;;;;;;;24.98;16.55;;;;;;;9.61;39.85;100418.97;6309858;22;19998;-89
2022/03/27 00:46:41;;;;;;;21.67;16.90;;;;;;;9.35;40.27;100366.16;6310085;22;19994;-89
2022/03/27 00:49:06;;;;;;;24.60;18.45;;;;;;;9.38;39.98;100408.03;6338005;22;20348;-90
2022/03/27 00:51:32;;;;;;;27.20;18.98;;;;;;;9.76;40.27;100457.06;6337669;22;20021;-90
2022/03/27 00:53:57;;;;;;;26.67;18.30;;;;;;;8.91;40.18;100323.03;6337547;22;19995;-90
2022/03/27 00:56:23;;;;;;;19.42;16.40;;;;;;;9.32;40.28;100406.00;6309080;22;20064;-90
2022/03/27 00:58:48;;;;;;;22.75;15.77;;;;;;;8.81;40.12;100324.91;6337029;22;19998;-90
2022/03/27 01:01:18;;;;;;;22.40;18.15;;;;;;;9.21;40.17;100391.22;6308978;22;20025;-90
2022/03/27 01:03:44;;;;;;;22.63;17.05;;;;;;;8.36;40.56;100249.38;6309448;22;20011;-89
2022/03/27 01:06:23;;;;;;;24.50;17.90;;;;;;;9.53;40.42;100451.34;6337137;22;19995;-89
2022/03/27 01:11:32;;;;;;;22.90;17.17;;;;;;;9.37;40.82;100453.81;6337530;22;20356;-90
2022/03/27 01:13:58;;;;;;;22.60;18.30;;;;;;;7.60;40.63;100173.25;6309685;22;19999;-90
2022/03/27 01:16:47;;;;;;;25.50;19.05;;;;;;;9.36;40.87;100446.88;6309702;22;20002;-90
2022/03/27 01:19:16;;;;;;;29.52;20.27;;;;;;;9.22;40.84;100442.94;6309982;22;19994;-90
2022/03/27 01:21:44;;;;;;;23.40;18.52;;;;;;;9.27;41.03;100441.69;6309620;22;20562;-90
2022/03/27 01:24:09;;;;;;;25.58;18.77;;;;;;;9.08;41.12;100447.88;6309853;22;19999;-90
2022/03/27 01:26:37;;;;;;;24.70;18.80;;;;;;;8.71;41.34;100403.94;6337466;22;20388;-90
2022/03/27 01:29:03;;;;;;;26.80;19.40;;;;;;;8.95;41.21;100442.94;6337479;22;20055;-90
2022/03/27 01:31:29;;;;;;;26.85;19.77;;;;;;;8.79;41.26;100424.28;6337286;22;19994;-90
2022/03/27 01:33:54;;;;;;;24.10;18.95;;;;;;;8.68;40.80;100380.53;6337209;22;20059;-91
2022/03/27 01:36:25;;;;;;;23.05;18.65;;;;;;;8.42;41.41;100364.56;6309564;22;20002;-90
2022/03/27 01:38:53;;;;;;;24.88;18.95;;;;;;;9.03;41.32;100444.84;6309491;22;19999;-90
2022/03/27 01:41:19;;;;;;;22.63;18.60;;;;;;;9.05;41.57;100448.19;6336708;22;20420;-89
2022/03/27 01:43:45;;;;;;;22.15;17.98;;;;;;;8.28;41.34;100342.16;6308855;22;20009;-89
2022/03/27 01:46:10;;;;;;;21.17;15.57;;;;;;;8.31;41.51;100372.63;6309246;22;19999;-91
2022/03/27 01:48:36;;;;;;;21.88;14.15;;;;;;;8.19;42.06;100361.44;6309416;22;20036;-90
2022/03/27 01:51:02;;;;;;;24.98;16.45;;;;;;;7.90;41.73;100314.13;6309224;22;19999;-90
2022/03/27 01:53:27;;;;;;;20.10;15.63;;;;;;;8.51;41.86;100436.56;6309231;22;20466;-90
2022/03/27 01:55:53;;;;;;;21.02;14.30;;;;;;;8.34;41.67;100396.03;6336585;22;20003;-90
2022/03/27 01:58:19;;;;;;;64.25;35.60;;;;;;;7.93;41.70;100348.03;6309126;22;19994;-90
2022/03/27 02:00:44;;;;;;;56.05;33.10;;;;;;;8.54;41.59;100445.00;6308943;22;20454;-90
2022/03/27 02:03:10;;;;;;;29.95;20.60;;;;;;;8.37;41.86;100434.41;6309188;22;20027;-91
2022/03/27 02:05:36;;;;;;;24.25;17.80;;;;;;;8.46;42.08;100451.97;6337017;22;19997;-90
2022/03/27 02:08:01;;;;;;;24.80;15.77;;;;;;;8.10;42.57;100380.66;6309216;22;19998;-91
2022/03/27 02:10:27;;;;;;;16.60;13.70;;;;;;;8.13;42.05;100371.66;6336518;22;20005;-90
2022/03/27 02:12:52;;;;;;;21.27;15.55;;;;;;;8.59;41.88;100457.75;6336529;22;20051;-90
2022/03/27 02:15:18;;;;;;;19.42;15.00;;;;;;;8.25;42.05;100389.81;6310591;22;20003;-90
2022/03/27 02:17:43;;;;;;;20.02;15.52;;;;;;;7.74;41.83;100311.25;6311091;22;20005;-90
2022/03/27 02:20:10;;;;;;;23.48;16.10;;;;;;;8.51;41.46;100440.03;6338912;22;20062;-90
2022/03/27 02:22:36;;;;;;;19.83;16.08;;;;;;;8.54;41.92;100431.84;6310978;22;20188;-91
2022/03/27 02:25:02;;;;;;;21.20;14.82;;;;;;;8.10;41.73;100375.41;6311229;22;20003;-90
2022/03/27 02:27:27;;;;;;;18.65;15.00;;;;;;;7.23;41.67;100241.47;6338497;22;20066;-90
2022/03/27 02:29:53;;;;;;;20.23;14.80;;;;;;;8.32;41.79;100389.22;6338670;22;20037;-91
2022/03/27 02:32:19;;;;;;;24.27;16.15;;;;;;;7.27;41.93;100218.38;6338441;22;19995;-90
2022/03/27 02:34:45;;;;;;;19.52;14.88;;;;;;;8.06;41.54;100360.88;6311043;22;20009;-90
2022/03/27 02:37:10;;;;;;;17.00;14.18;;;;;;;7.39;41.95;100243.53;6310852;22;20030;-90
2022/03/27 02:39:35;;;;;;;22.58;15.10;;;;;;;7.87;42.20;100351.22;6311074;22;20424;-90
2022/03/27 02:42:01;;;;;;;18.10;14.82;;;;;;;8.45;42.17;100434.50;6338464;22;20124;-90
2022/03/27 02:44:26;;;;;;;20.15;15.40;;;;;;;7.50;41.68;100279.34;6338323;22;19995;-90
2022/03/27 02:46:52;;;;;;;22.33;15.77;;;;;;;7.90;41.39;100337.81;6311082;22;19991;-90
2022/03/27 02:49:17;;;;;;;21.10;16.42;;;;;;;7.88;41.99;100333.66;6310915;22;20406;-90
2022/03/27 02:51:47;;;;;;;22.08;16.25;;;;;;;8.44;41.80;100444.22;6310983;22;20054;-90
2022/03/27 02:54:13;;;;;;;24.60;17.50;;;;;;;7.69;41.55;100296.88;6311005;22;20078;-90
2022/03/27 02:56:38;;;;;;;20.35;16.15;;;;;;;8.26;41.32;100390.63;6338253;22;20031;-90
2022/03/27 02:59:04;;;;;;;27.05;16.05;;;;;;;8.06;41.61;100349.53;6310683;22;20044;-90
2022/03/27 03:01:31;;;;;;;22.48;16.50;;;;;;;8.69;41.48;100460.34;6310653;22;20474;-91
2022/03/27 03:03:56;;;;;;;22.10;16.80;;;;;;;8.63;41.79;100464.38;6337937;22;20096;-91
2022/03/27 03:06:24;;;;;;;24.40;17.50;;;;;;;8.16;41.95;100369.56;6310363;22;20029;-91
2022/03/27 03:08:49;;;;;;;26.00;17.38;;;;;;;8.45;41.71;100414.28;6310495;22;20003;-90
2022/03/27 03:11:15;;;;;;;22.30;16.15;;;;;;;7.83;41.93;100334.06;6310434;22;20341;-90
2022/03/27 03:13:41;;;;;;;23.88;17.40;;;;;;;7.99;41.48;100359.78;6310543;22;20006;-90
2022/03/27 03:16:07;;;;;;;26.45;17.27;;;;;;;8.51;41.74;100439.19;6338111;22;20013;-89
2022/03/27 03:18:34;;;;;;;21.23;15.32;;;;;;;8.16;41.58;100390.63;6310412;22;20003;-90
2022/03/27 03:21:00;;;;;;;22.92;16.45;;;;;;;8.66;41.84;100469.38;6310657;22;20001;-90
2022/03/27 03:23:25;;;;;;;27.08;17.23;;;;;;;8.68;41.61;100466.59;6310454;22;20006;-90
2022/03/27 03:25:51;;;;;;;24.02;16.35;;;;;;;8.21;41.78;100412.09;6309830;22;20002;-90
2022/03/27 03:28:16;;;;;;;22.80;17.48;;;;;;;8.41;42.08;100431.34;6310565;22;20010;-91
2022/03/27 03:30:42;;;;;;;24.50;16.65;;;;;;;7.91;42.11;100359.66;6311129;22;19998;-91
2022/03/27 03:33:07;;;;;;;24.63;17.50;;;;;;;8.44;41.86;100443.38;6311497;22;20083;-90
2022/03/27 03:35:33;;;;;;;23.73;17.98;;;;;;;7.05;41.76;100223.94;6337852;22;20087;-90
2022/03/27 03:37:59;;;;;;;23.98;17.00;;;;;;;8.26;42.20;100409.88;6310604;22;20064;-89
2022/03/27 03:40:24;;;;;;;23.92;18.65;;;;;;;8.43;42.21;100462.78;6310909;22;20069;-91
2022/03/27 03:42:50;;;;;;;22.45;17.50;;;;;;;7.95;42.08;100387.34;6310736;22;19991;-90
2022/03/27 03:45:15;;;;;;;23.30;17.25;;;;;;;8.50;42.28;100475.22;6338140;22;20002;-91
2022/03/27 03:47:40;;;;;;;23.02;17.15;;;;;;;7.43;42.03;100276.47;6338231;22;19987;-91
2022/03/27 03:50:06;;;;;;;24.05;18.75;;;;;;;6.61;41.98;100147.38;6310797;22;20002;-90
2022/03/27 03:52:32;;;;;;;24.05;17.60;;;;;;;8.33;42.12;100433.00;6338021;22;20417;-90
2022/03/27 03:54:57;;;;;;;26.70;17.65;;;;;;;8.05;42.06;100377.63;6337647;22;20070;-90
2022/03/27 03:57:23;;;;;;;26.92;18.17;;;;;;;8.32;41.66;100455.00;6337634;22;20153;-90
2022/03/27 03:59:48;;;;;;;28.13;18.73;;;;;;;8.43;41.92;100447.81;6310013;22;19995;-91
2022/03/27 04:02:18;;;;;;;28.60;18.42;;;;;;;7.88;42.23;100392.31;6337689;22;20026;-91
2022/03/27 04:04:44;;;;;;;27.42;19.77;;;;;;;8.02;42.09;100422.63;6310002;22;19999;-91
2022/03/27 04:07:09;;;;;;;26.38;19.63;;;;;;;8.57;42.09;100494.75;6310171;22;19995;-90
2022/03/27 04:09:35;;;;;;;28.65;21.70;;;;;;;7.97;42.24;100403.81;6310208;22;19994;-91
2022/03/27 04:12:01;;;;;;;34.42;23.38;;;;;;;8.18;42.22;100458.91;6344061;22;20012;-91
2022/03/27 04:14:29;;;;;;;31.20;23.65;;;;;;;8.46;41.90;100505.44;6326386;22;19986;-90
2022/03/27 04:16:56;;;;;;;28.73;23.58;;;;;;;8.01;41.70;100441.16;6368572;22;19995;-88
2022/03/27 04:19:21;;;;;;;30.10;22.77;;;;;;;7.94;42.16;100423.31;6335031;22;20085;-91
2022/03/27 04:21:47;;;;;;;27.52;20.27;;;;;;;7.86;41.75;100428.44;6310997;22;20022;-91
2022/03/27 04:24:12;;;;;;;26.77;20.63;;;;;;;7.55;42.16;100398.84;6310866;22;20003;-87
2022/03/27 04:26:40;;;;;;;31.77;21.83;;;;;;;7.49;41.97;100388.88;6338021;22;20021;-87
2022/03/27 04:29:07;;;;;;;26.35;18.70;;;;;;;7.61;42.33;100414.06;6310168;22;19999;-86
2022/03/27 04:31:32;;;;;;;25.70;19.02;;;;;;;7.47;42.03;100414.47;6337383;22;19995;-87
2022/03/27 04:33:58;;;;;;;41.58;26.65;;;;;;;7.75;42.47;100456.66;6309418;22;20006;-87
2022/03/27 04:36:23;;;;;;;54.65;32.35;;;;;;;7.35;41.94;100405.00;6337244;22;19995;-87
2022/03/27 04:38:49;;;;;;;54.17;32.47;;;;;;;7.38;42.35;100438.91;6337189;22;20451;-87
2022/03/27 04:41:15;;;;;;;52.78;33.58;;;;;;;7.61;42.16;100492.06;6309519;22;20409;-88
2022/03/27 04:43:40;;;;;;;43.92;30.50;;;;;;;7.18;42.11;100442.44;6337153;22;20316;-87
2022/03/27 04:46:07;;;;;;;44.65;30.00;;;;;;;6.90;42.52;100413.34;6313058;22;20351;-88
2022/03/27 04:48:34;;;;;;;48.17;36.60;;;;;;;6.89;42.95;100419.56;6319478;22;20056;-87
2022/03/27 04:50:59;;;;;;;47.88;35.78;;;;;;;7.56;42.82;100541.56;6343744;22;20073;-87
2022/03/27 04:53:24;;;;;;;45.45;30.75;;;;;;;7.26;42.47;100497.75;6309265;22;20033;-87
2022/03/27 04:55:50;;;;;;;37.55;26.83;;;;;;;6.01;43.09;100296.00;6309332;22;19995;-87
2022/03/27 04:58:17;;;;;;;37.35;24.92;;;;;;;7.54;43.03;100539.09;6337120;22;20010;-87
2022/03/27 05:00:42;;;;;;;29.73;22.80;;;;;;;7.44;42.50;100532.13;6309111;22;20444;-88
2022/03/27 05:03:08;;;;;;;36.58;25.55;;;;;;;7.20;42.98;100495.66;6336926;22;19998;-87
2022/03/27 05:05:33;;;;;;;32.63;23.83;;;;;;;7.51;43.25;100544.59;6309117;22;20505;-88
2022/03/27 05:08:00;;;;;;;33.38;24.38;;;;;;;6.52;43.11;100365.94;6336793;22;20005;-87
2022/03/27 05:10:26;;;;;;;29.63;23.85;;;;;;;7.63;42.94;100542.69;6309268;22;20006;-87
2022/03/27 05:12:52;;;;;;;31.73;22.73;;;;;;;7.30;43.07;100481.59;6309340;22;19999;-87
2022/03/27 05:15:18;;;;;;;30.20;21.95;;;;;;;7.77;42.71;100541.50;6309183;22;20005;-87
2022/03/27 05:17:55;;;;;;;30.35;23.10;;;;;;;7.52;42.66;100492.88;6309201;22;20074;-87
2022/03/27 05:20:21;;;;;;;33.25;24.52;;;;;;;6.37;42.32;100295.47;6337043;22;20003;-88
2022/03/27 05:22:47;;;;;;;35.72;26.88;;;;;;;7.80;42.50;100525.44;6336927;22;19995;-87
2022/03/27 05:25:15;;;;;;;29.05;22.73;;;;;;;7.88;42.55;100515.06;6337137;22;19995;-91
2022/03/27 05:27:50;;;;;;;29.88;22.90;;;;;;;7.98;42.17;100529.88;6336941;22;19994;-91
2022/03/27 05:30:18;;;;;;;28.90;23.23;;;;;;;7.52;42.52;100456.09;6309697;22;20100;-91
2022/03/27 05:32:45;;;;;;;29.50;23.52;;;;;;;7.86;42.42;100507.31;6309554;22;19998;-91
2022/03/27 05:35:10;;;;;;;34.42;23.73;;;;;;;7.80;42.45;100483.38;6337147;22;19995;-91
2022/03/27 05:37:40;;;;;;;29.45;23.73;;;;;;;8.32;42.74;100539.19;6309676;22;20055;-90
2022/03/27 05:40:07;;;;;;;31.95;25.02;;;;;;;8.10;42.24;100488.50;6309674;22;20003;-90
2022/03/27 05:42:33;;;;;;;32.42;24.65;;;;;;;8.23;42.27;100554.84;6309640;22;20025;-91
2022/03/27 05:44:59;;;;;;;38.30;28.48;;;;;;;8.47;42.23;100541.31;6309839;22;20002;-91
2022/03/27 05:47:26;;;;;;;37.10;27.65;;;;;;;8.02;42.11;100464.69;6309824;22;19995;-90
2022/03/27 05:49:51;;;;;;;37.88;28.98;;;;;;;8.40;41.87;100492.84;6337024;22;20006;-90
2022/03/27 05:52:17;;;;;;;34.88;26.17;;;;;;;8.83;41.89;100560.78;6337457;22;19999;-90
2022/03/27 05:54:43;;;;;;;36.17;27.35;;;;;;;8.94;42.08;100551.09;6336987;22;20033;-90
2022/03/27 05:57:09;;;;;;;34.58;26.20;;;;;;;8.66;41.73;100506.22;6309011;22;20048;-90
2022/03/27 05:59:34;;;;;;;36.50;26.77;;;;;;;8.83;41.67;100502.00;6308888;22;20028;-90
2022/03/27 06:02:00;;;;;;;35.10;27.33;;;;;;;8.64;41.71;100463.41;6308788;22;20019;-90
2022/03/27 06:04:26;;;;;;;33.03;25.70;;;;;;;7.96;41.27;100342.50;6308938;22;20091;-90
2022/03/27 06:06:51;;;;;;;39.17;27.65;;;;;;;8.77;41.46;100456.03;6309131;22;20382;-90
2022/03/27 06:09:17;;;;;;;34.10;24.10;;;;;;;8.84;41.20;100448.38;6336837;22;19998;-89
2022/03/27 06:11:42;;;;;;;35.78;26.52;;;;;;;9.27;41.24;100510.19;6336796;22;20002;-91
2022/03/27 06:14:07;;;;;;;38.08;27.48;;;;;;;9.19;40.98;100489.84;6337026;22;20002;-90
2022/03/27 06:16:33;;;;;;;38.95;27.83;;;;;;;9.75;40.79;100562.69;6336615;22;20051;-89
2022/03/27 06:18:58;;;;;;;38.50;27.75;;;;;;;9.84;40.90;100562.63;6309117;22;20371;-90
2022/03/27 06:21:24;;;;;;;35.25;27.45;;;;;;;10.06;40.74;100585.13;6309230;22;20814;-89
2022/03/27 06:23:49;;;;;;;35.50;26.20;;;;;;;9.14;40.85;100426.22;6309273;22;20352;-88
2022/03/27 06:26:15;;;;;;;36.90;26.98;;;;;;;8.75;40.78;100336.84;6309311;22;19994;-90
2022/03/27 06:28:40;;;;;;;39.88;28.48;;;;;;;9.42;40.71;100424.38;6309177;22;20068;-90
2022/03/27 06:31:06;;;;;;;36.50;27.08;;;;;;;9.71;40.62;100463.75;6309381;22;20037;-89
2022/03/27 06:33:31;;;;;;;37.80;27.70;;;;;;;10.49;40.57;100584.44;6336806;22;19999;-90
2022/03/27 06:35:56;;;;;;;36.92;27.13;;;;;;;10.31;40.36;100530.78;6309141;22;20053;-90
2022/03/27 06:38:23;;;;;;;38.78;27.75;;;;;;;10.28;40.38;100536.38;6309095;22;19999;-89
2022/03/27 06:40:48;;;;;;;37.25;27.83;;;;;;;10.06;40.44;100455.84;6308960;22;20083;-89
2022/03/27 06:43:14;;;;;;;37.67;28.15;;;;;;;10.27;40.03;100466.09;6308936;22;19995;-90
2022/03/27 06:45:39;;;;;;;40.38;31.33;;;;;;;10.01;39.74;100400.06;6336574;22;19995;-90
2022/03/27 06:48:05;;;;;;;42.28;28.95;;;;;;;10.82;39.78;100508.91;6336458;22;20262;-90
2022/03/27 06:50:31;;;;;;;41.95;32.58;;;;;;;10.56;39.43;100457.91;6308848;22;20078;-89
2022/03/27 06:52:57;;;;;;;36.88;28.17;;;;;;;11.05;39.55;100505.72;6336559;22;20002;-89
2022/03/27 06:55:23;;;;;;;37.95;29.20;;;;;;;10.96;39.22;100469.69;6336141;22;19994;-89
2022/03/27 06:57:49;;;;;;;35.25;25.83;;;;;;;11.03;39.12;100449.56;6309007;22;20451;-90
2022/03/27 07:03:06;;;;;;;26.25;19.65;;;;;;;11.59;38.43;100498.38;6337840;22;20022;-89
2022/03/27 07:05:37;;;;;;;24.02;18.88;;;;;;;11.93;38.45;100546.78;6338193;22;20429;-89
2022/03/27 07:08:07;;;;;;;27.15;20.50;;;;;;;11.83;37.70;100516.16;6310670;22;20006;-89
2022/03/27 07:10:33;;;;;;;23.42;19.40;;;;;;;12.27;37.71;100549.31;6311332;22;20021;-89
2022/03/27 07:12:58;;;;;;;22.65;16.08;;;;;;;11.72;37.77;100440.53;6338570;22;20439;-89
2022/03/27 07:15:24;;;;;;;20.70;14.63;;;;;;;12.55;37.15;100576.31;6338665;22;20414;-89
2022/03/27 07:17:50;;;;;;;20.60;14.80;;;;;;;11.97;36.79;100436.16;6310898;22;19999;-89
2022/03/27 07:20:24;;;;;;;20.40;12.27;;;;;;;11.66;36.77;100364.47;6338659;22;20057;-88
2022/03/27 07:22:50;;;;;;;16.52;11.80;;;;;;;12.59;36.56;100503.47;6311015;22;20454;-88
2022/03/27 07:25:15;;;;;;;15.90;11.45;;;;;;;13.11;36.51;100560.53;6337832;22;19995;-88
2022/03/27 07:27:41;;;;;;;18.02;11.20;;;;;;;12.82;35.91;100494.84;6337892;22;20066;-88
2022/03/27 07:30:08;;;;;;;21.30;13.13;;;;;;;13.35;36.17;100553.38;6310310;22;20408;-88
2022/03/27 07:32:34;;;;;;;16.67;12.27;;;;;;;13.32;35.78;100540.44;6310400;22;19999;-89
2022/03/27 07:34:59;;;;;;;21.88;13.05;;;;;;;12.48;35.78;100375.84;6310465;22;20071;-88
2022/03/27 07:37:26;;;;;;;13.07;8.45;;;;;;;13.13;35.55;100455.97;6337808;22;20082;-88
2022/03/27 07:39:51;;;;;;;15.65;8.88;;;;;;;13.54;34.99;100512.38;6337803;22;19998;-88
2022/03/27 07:42:17;;;;;;;11.95;7.80;;;;;;;13.21;34.72;100423.31;6337770;22;20002;-88
2022/03/27 07:44:42;;;;;;;12.25;7.75;;;;;;;13.57;34.55;100472.22;6337785;22;19999;-88
2022/03/27 07:47:08;;;;;;;11.25;8.02;;;;;;;13.79;34.43;100475.06;6337621;22;20058;-88
2022/03/27 07:49:33;;;;;;;12.98;8.25;;;;;;;14.27;34.42;100537.66;6336615;22;20081;-88
2022/03/27 07:52:05;;;;;;;12.63;9.00;;;;;;;14.32;34.45;100519.34;6336721;22;20002;-88
2022/03/27 07:54:30;;;;;;;;;;;;;;;14.42;34.50;100543.03;6338884;22;19995;-88
2022/03/27 07:56:56;;;;;;;13.32;8.15;;;;;;;13.75;34.22;100400.28;6336598;22;19909;-88
2022/03/27 07:59:21;;;;;;;14.32;9.25;;;;;;;14.69;33.56;100533.69;6310399;22;20442;-88
2022/03/27 08:01:48;;;;;;;10.52;7.93;;;;;;;14.43;34.06;100463.16;6305063;22;20035;-88
2022/03/27 08:04:13;;;;;;;13.13;8.52;;;;;;;14.38;33.56;100438.09;6304592;22;19999;-87
2022/03/27 08:06:39;;;;;;;13.85;8.50;;;;;;;14.20;33.51;100394.13;6305231;22;20044;-87
2022/03/27 08:09:05;;;;;;;14.73;9.15;;;;;;;15.15;33.31;100513.13;6306605;22;19999;-88
2022/03/27 08:11:33;;;;;;;15.35;8.23;;;;;;;14.49;33.13;100403.97;6304544;22;20007;-87
2022/03/27 08:13:59;;;;;;;17.27;8.27;;;;;;;15.40;33.00;100519.78;6306180;22;19991;-87
2022/03/27 08:16:26;;;;;;;14.57;9.02;;;;;;;14.94;32.82;100442.03;6304760;22;20527;-87
2022/03/27 08:18:51;;;;;;;16.30;8.45;;;;;;;15.30;32.41;100467.88;6306247;22;20006;-87
2022/03/27 08:21:17;;;;;;;11.95;8.10;;;;;;;15.37;32.13;100476.75;6304976;22;20003;-87
2022/03/27 08:23:42;;;;;;;14.82;7.72;;;;;;;15.04;32.03;100401.88;6323129;22;19979;-87
2022/03/27 08:28:52;;;;;;;11.27;8.18;;;;;;;15.59;31.98;100435.91;6317384;22;20010;-87
2022/03/27 08:31:17;;;;;;;11.77;8.48;;;;;;;15.50;31.67;100403.22;6305661;22;20003;-87
2022/03/27 08:33:42;;;;;;;15.55;7.80;;;;;;;15.59;31.52;100401.28;6308218;22;20070;-87
2022/03/27 08:36:08;;;;;;;13.82;7.95;;;;;;;15.92;31.23;100420.28;6305928;22;20003;-87
2022/03/27 08:38:33;;;;;;;12.45;7.70;;;;;;;15.24;30.74;100300.00;6306307;22;20409;-87
2022/03/27 08:41:01;;;;;;;13.70;8.15;;;;;;;16.01;30.54;100383.66;6304823;22;20513;-87
2022/03/27 08:43:31;;;;;;;14.43;7.80;;;;;;;16.41;30.06;100441.59;6306366;22;19999;-87
2022/03/27 08:45:58;;;;;;;13.85;7.35;;;;;;;17.04;29.42;100493.13;6306446;22;20512;-87
2022/03/27 08:48:24;;;;;;;9.63;6.82;;;;;;;16.44;28.55;100409.22;6306608;22;20070;-87
2022/03/27 08:51:08;;;;;;;12.55;7.55;;;;;;;17.38;26.76;100492.28;6307080;22;19995;-87
2022/03/27 08:53:54;;;;;;;11.25;7.10;;;;;;;17.47;26.42;100477.72;6307220;22;20356;-86
2022/03/27 08:56:20;;;;;;;13.20;7.20;;;;;;;15.65;26.79;100166.28;6305873;22;20440;-87
2022/03/27 08:58:45;;;;;;;9.02;6.68;;;;;;;17.17;26.56;100361.63;6305733;22;20056;-87
2022/03/27 09:01:11;;;;;;;16.20;7.30;;;;;;;17.42;26.14;100384.06;6312415;22;20018;-86
2022/03/27 09:03:37;;;;;;;14.13;7.28;;;;;;;17.21;25.67;100340.69;6309545;22;20416;-86
2022/03/27 09:06:05;;;;;;;11.57;7.50;;;;;;;18.20;25.15;100479.78;6309618;22;20428;-87
2022/03/27 09:08:31;;;;;;;9.88;6.85;;;;;;;18.22;24.75;100464.38;6337297;22;20033;-87
2022/03/27 09:10:57;;;;;;;13.77;8.05;;;;;;;18.45;24.39;100474.66;6309552;22;20348;-86
2022/03/27 09:13:24;;;;;;;11.35;6.97;;;;;;;18.13;24.08;100404.94;6337097;22;19999;-87
2022/03/27 09:16:02;;;;;;;14.77;7.38;;;;;;;18.37;24.15;100435.56;6337008;22;19999;-87
2022/03/27 09:18:52;;;;;;;11.63;7.63;;;;;;;18.89;22.14;100476.69;6309675;22;20070;-87
2022/03/27 09:21:23;;;;;;;13.68;7.22;;;;;;;19.02;23.04;100487.38;6309309;22;19999;-86
2022/03/27 09:23:59;;;;;;;12.30;7.40;;;;;;;18.80;21.89;100432.47;6336560;22;20001;-86
2022/03/27 09:26:26;;;;;;;10.13;7.32;;;;;;;19.27;22.68;100474.09;6336826;22;20066;-87
2022/03/27 09:29:09;;;;;;;16.05;7.57;;;;;;;19.44;21.75;100467.28;6336971;22;19999;-86
2022/03/27 09:31:34;;;;;;;15.45;7.53;;;;;;;19.54;21.99;100477.56;6336822;22;20057;-87
2022/03/27 09:34:03;;;;;;;10.63;7.50;;;;;;;19.65;20.81;100482.25;6336660;22;20002;-87
2022/03/27 09:36:40;;;;;;;10.88;7.88;;;;;;;19.75;21.60;100481.78;6336740;22;20463;-87
2022/03/27 09:39:16;;;;;;;12.15;7.53;;;;;;;19.86;21.52;100470.38;6336629;22;20028;-86
2022/03/27 09:41:46;;;;;;;11.10;7.25;;;;;;;20.03;20.98;100476.84;6309635;22;19998;-86
2022/03/27 09:44:18;;;;;;;13.07;7.63;;;;;;;19.99;20.83;100463.06;6336944;22;20520;-87
2022/03/27 09:46:50;;;;;;;15.18;7.50;;;;;;;20.26;20.54;100473.59;6336875;22;20052;-87
2022/03/27 09:49:17;;;;;;;12.27;9.00;;;;;;;20.31;20.28;100471.09;6336877;22;20052;-86
2022/03/27 09:51:54;;;;;;;10.40;7.75;;;;;;;20.52;19.34;100467.22;6309091;22;19995;-87
2022/03/27 09:54:21;;;;;;;10.70;7.25;;;;;;;20.16;20.33;100392.84;6307603;22;20067;-87
2022/03/27 09:56:46;;;;;;;11.07;7.55;;;;;;;20.48;20.07;100437.34;6336968;22;20033;-86
2022/03/27 09:59:42;;;;;;;9.43;7.78;;;;;;;21.03;19.61;100458.06;6309602;22;20003;-87
2022/03/27 10:02:22;;;;;;;15.20;8.25;;;;;;;21.27;18.81;100459.88;6336507;22;20015;-87
2022/03/27 10:05:11;;;;;;;14.40;8.68;;;;;;;21.20;18.44;100438.41;6336867;22;19999;-87
2022/03/27 10:07:41;;;;;;;9.10;7.50;;;;;;;21.40;19.47;100461.56;6336568;22;20481;-86
2022/03/27 10:10:10;;;;;;;13.40;8.38;;;;;;;20.83;19.33;100334.81;6336809;22;20040;-86
2022/03/27 10:12:37;;;;;;;13.15;7.95;;;;;;;21.60;19.15;100443.34;6309631;22;20077;-86
2022/03/27 10:15:09;;;;;;;12.95;7.65;;;;;;;21.75;18.10;100450.97;6337532;22;20521;-87
2022/03/27 10:17:37;;;;;;;10.32;7.55;;;;;;;21.73;18.55;100443.13;6309890;22;20049;-86
2022/03/27 10:20:09;;;;;;;8.63;7.15;;;;;;;21.76;18.44;100414.97;6309611;22;20078;-87
2022/03/27 10:22:42;;;;;;;13.80;8.70;;;;;;;22.12;17.82;100439.03;6337155;22;20397;-86
2022/03/27 10:25:09;;;;;;;12.07;8.43;;;;;;;22.20;18.56;100427.94;6337138;22;20388;-87
2022/03/27 10:27:37;;;;;;;11.50;9.05;;;;;;;22.43;18.40;100435.25;6337109;22;19998;-87
2022/03/27 10:30:04;;;;;;;12.23;8.90;;;;;;;22.39;18.18;100428.69;6337032;22;19995;-86
2022/03/27 10:32:30;;;;;;;11.00;8.48;;;;;;;22.60;18.15;100440.72;6337075;22;20029;-87
2022/03/27 10:35:17;;;;;;;13.45;8.68;;;;;;;22.78;17.77;100419.06;6310014;22;20351;-87
2022/03/27 10:38:04;;;;;;;13.13;8.27;;;;;;;22.70;17.78;100418.59;6338572;22;19999;-87
2022/03/27 10:40:58;;;;;;;9.65;8.35;;;;;;;22.67;17.64;100427.97;6338150;22;19998;-87
2022/03/27 10:43:29;;;;;;;12.10;8.30;;;;;;;22.74;17.74;100425.16;6337806;22;20081;-87
2022/03/27 10:46:15;;;;;;;13.88;8.30;;;;;;;22.71;17.43;100417.53;6338467;22;19991;-87
2022/03/27 10:48:42;;;;;;;12.43;7.90;;;;;;;22.74;17.75;100411.69;6338185;22;20064;-87
2022/03/27 10:51:35;;;;;;;12.05;9.00;;;;;;;22.99;17.34;100427.59;6310531;22;20063;-87
2022/03/27 10:54:01;;;;;;;8.77;7.53;;;;;;;23.14;17.60;100422.53;6295219;22;20386;-86
2022/03/27 10:56:37;;;;;;;11.77;7.90;;;;;;;23.38;17.38;100425.97;6338003;22;20026;-86
2022/03/27 10:59:16;;;;;;;12.05;8.85;;;;;;;23.06;17.24;100388.72;6338185;22;19998;-86
2022/03/27 11:01:44;;;;;;;10.82;8.27;;;;;;;23.32;17.09;100418.84;6337728;22;20061;-86
2022/03/27 11:04:17;;;;;;;13.40;9.05;;;;;;;23.38;17.33;100421.41;6310398;22;20455;-87
2022/03/27 11:06:44;;;;;;;10.93;7.70;;;;;;;23.51;17.22;100416.78;6338081;22;20432;-86
2022/03/27 11:09:31;;;;;;;12.05;7.95;;;;;;;23.66;17.17;100406.28;6337979;22;20070;-86
2022/03/27 11:11:57;;;;;;;12.02;8.73;;;;;;;23.31;17.09;100347.97;6310484;22;20028;-86
2022/03/27 11:14:54;;;;;;;8.45;7.35;;;;;;;23.76;17.03;100395.69;6310721;22;20030;-87
2022/03/27 11:17:33;;;;;;;10.80;7.25;;;;;;;23.43;16.74;100320.97;6337927;22;20001;-87
2022/03/27 11:19:59;;;;;;;13.48;7.47;;;;;;;23.81;16.58;100363.44;6310458;22;20015;-85
2022/03/27 11:22:47;;;;;;;9.38;7.15;;;;;;;24.09;15.70;100374.13;6337829;22;19998;-87
2022/03/27 11:25:22;;;;;;;11.05;7.70;;;;;;;24.28;15.99;100373.91;6310252;22;20003;-87
2022/03/27 11:27:56;;;;;;;11.27;7.15;;;;;;;24.30;15.18;100369.06;6310196;22;19994;-87
2022/03/27 11:30:22;;;;;;;15.90;9.15;;;;;;;23.92;15.44;100303.19;6337657;22;19995;-86
2022/03/27 11:33:12;;;;;;;13.50;8.27;;;;;;;24.35;14.43;100367.25;6337885;22;20404;-86
2022/03/27 11:35:43;;;;;;;10.85;7.05;;;;;;;24.48;15.00;100365.28;6337600;22;20066;-86
2022/03/27 11:38:53;;;;;;;10.10;8.02;;;;;;;24.68;15.02;100362.88;6337606;22;19991;-85
2022/03/27 11:41:26;;;;;;;11.23;8.10;;;;;;;24.81;15.18;100337.38;6321486;22;20005;-86
2022/03/27 11:43:53;;;;;;;12.60;8.43;;;;;;;24.99;15.24;100347.88;6310714;22;20006;-86
2022/03/27 11:46:28;;;;;;;10.95;7.38;;;;;;;24.68;15.26;100274.56;6310298;22;20440;-86